Time;durP1;ratioP1;P1;durP2;ratioP2;P2;SDS_P1;SDS_P2;PMS_P1;PMS_P2;Temp;Humidity;BMP_temperature;BMP_pressure;BME280_temperature;BME280_humidity;BME280_pressure;Samples;Min_cycle;Max_cycle;Signal;HPM_P1;HPM_P2
2023/03/13 00:00:16;;;;;;;26.13;5.70;;;8.10;99.90;;;;;;5047049;28;20098;-44
2023/03/13 00:02:44;;;;;;;32.03;5.40;;;8.00;99.90;;;;;;5046351;28;20685;-44
2023/03/13 00:05:12;;;;;;;33.58;6.38;;;7.80;99.90;;;;;;5047206;28;20049;-45
2023/03/13 00:07:39;;;;;;;37.35;6.22;;;7.90;99.90;;;;;;5047453;28;20047;-44
2023/03/13 00:10:05;;;;;;;33.38;6.20;;;7.80;99.90;;;;;;5047659;28;20087;-45
2023/03/13 00:12:31;;;;;;;34.15;5.85;;;7.80;99.90;;;;;;5047665;28;20622;-45
2023/03/13 00:14:57;;;;;;;38.90;5.35;;;7.70;99.90;;;;;;5047427;28;20047;-44
2023/03/13 00:17:23;;;;;;;40.50;6.18;;;8.50;99.90;;;;;;5047813;28;20045;-45
2023/03/13 00:19:49;;;;;;;34.30;5.55;;;7.60;99.90;;;;;;5047432;28;20409;-45
2023/03/13 00:22:15;;;;;;;40.45;5.43;;;9.50;99.90;;;;;;5047278;28;20040;-45
2023/03/13 00:24:41;;;;;;;33.97;6.38;;;7.60;99.90;;;;;;5047078;28;20041;-46
2023/03/13 00:27:06;;;;;;;39.22;6.32;;;7.60;99.90;;;;;;5046751;28;20048;-45
2023/03/13 00:29:33;;;;;;;35.83;6.22;;;7.60;99.90;;;;;;5047078;28;20485;-44
2023/03/13 00:31:59;;;;;;;29.48;5.57;;;8.20;99.90;;;;;;5047356;28;20071;-45
2023/03/13 00:34:26;;;;;;;35.28;5.25;;;8.20;99.90;;;;;;5048007;28;20041;-46
2023/03/13 00:36:53;;;;;;;28.15;5.25;;;8.60;99.90;;;;;;5047678;28;20056;-45
2023/03/13 00:39:20;;;;;;;42.13;7.00;;;8.50;99.90;;;;;;5048484;28;20572;-44
2023/03/13 00:41:45;;;;;;;33.50;6.45;;;8.50;99.90;;;;;;5029948;28;20443;-45
2023/03/13 00:44:11;;;;;;;42.65;7.32;;;8.00;99.90;;;;;;5047809;28;20124;-45
2023/03/13 00:46:37;;;;;;;41.40;6.75;;;7.50;99.90;;;;;;5048099;28;20441;-45
2023/03/13 00:49:03;;;;;;;41.58;6.88;;;7.50;99.90;;;;;;5047942;28;20048;-45
2023/03/13 00:51:29;;;;;;;37.45;6.70;;;;;;;;;;5048023;28;20049;-45
2023/03/13 00:53:59;;;;;;;37.30;7.40;;;7.50;99.90;;;;;;5047349;28;20044;-44
2023/03/13 00:56:24;;;;;;;43.03;7.10;;;8.60;99.90;;;;;;5046717;28;20124;-45
2023/03/13 00:58:50;;;;;;;41.25;5.88;;;8.90;99.90;;;;;;5046830;28;20048;-46
2023/03/13 01:01:28;;;;;;;26.38;5.68;;;8.00;99.90;;;;;;5047210;28;20051;-45
2023/03/13 01:03:57;;;;;;;29.42;6.32;;;7.50;99.90;;;;;;5046897;28;20040;-44
2023/03/13 01:06:25;;;;;;;32.47;4.95;;;7.50;99.90;;;;;;5046738;28;20120;-46
2023/03/13 01:08:51;;;;;;;34.72;6.70;;;7.90;99.90;;;;;;5046687;28;20752;-44
2023/03/13 01:11:21;;;;;;;42.97;7.05;;;7.40;99.90;;;;;;5046809;28;20056;-45
2023/03/13 01:13:47;;;;;;;41.78;5.32;;;7.50;99.90;;;;;;5046706;28;20041;-45
2023/03/13 01:16:16;;;;;;;33.60;6.75;;;8.80;99.90;;;;;;5046764;28;20048;-45
2023/03/13 01:18:44;;;;;;;35.28;6.22;;;8.30;99.90;;;;;;5047113;28;20037;-45
2023/03/13 01:21:11;;;;;;;34.28;7.35;;;7.50;99.90;;;;;;5047249;28;20052;-46
2023/03/13 01:23:37;;;;;;;32.88;5.47;;;7.50;99.90;;;;;;5029339;28;20060;-45
2023/03/13 01:26:05;;;;;;;34.95;5.78;;;7.80;99.90;;;;;;5046261;28;20041;-45
2023/03/13 01:28:31;;;;;;;34.92;5.53;;;7.40;99.90;;;;;;5062101;28;20056;-45
2023/03/13 01:30:59;;;;;;;32.65;5.68;;;8.50;99.90;;;;;;5046734;28;20040;-45
2023/03/13 01:33:24;;;;;;;27.63;6.40;;;7.40;99.90;;;;;;5047013;28;20063;-45
2023/03/13 01:35:50;;;;;;;37.38;5.57;;;8.90;99.90;;;;;;5046434;28;20474;-45
2023/03/13 01:38:16;;;;;;;27.15;5.55;;;7.50;99.90;;;;;;5046768;28;20045;-45
2023/03/13 01:40:47;;;;;;;26.90;6.78;;;7.40;99.90;;;;;;5046841;28;20650;-46
2023/03/13 01:43:24;;;;;;;30.92;5.47;;;7.30;99.90;;;;;;5046253;28;20055;-45
2023/03/13 01:45:56;;;;;;;34.85;5.85;;;7.50;99.90;;;;;;5046329;28;20119;-46
2023/03/13 01:48:27;;;;;;;31.63;6.65;;;7.50;99.90;;;;;;5046707;28;20122;-45
2023/03/13 01:50:54;;;;;;;26.45;6.25;;;7.70;99.90;;;;;;5046573;28;20095;-45
2023/03/13 01:53:21;;;;;;;31.20;5.43;;;7.50;99.90;;;;;;5046357;28;20116;-45
2023/03/13 01:55:47;;;;;;;31.60;6.20;;;7.50;99.90;;;;;;5046008;28;20045;-46
2023/03/13 01:58:12;;;;;;;31.10;5.70;;;8.60;99.90;;;;;;5045374;28;20045;-45
2023/03/13 02:00:41;;;;;;;34.72;5.65;;;8.30;99.90;;;;;;5046161;28;20685;-45
2023/03/13 02:03:11;;;;;;;37.85;6.60;;;7.70;99.90;;;;;;5028073;28;20040;-44
2023/03/13 02:05:37;;;;;;;26.13;8.00;;;7.80;99.90;;;;;;5046419;28;20131;-45
2023/03/13 02:08:20;;;;;;;29.23;5.13;;;8.10;99.90;;;;;;5045681;28;20079;-44
2023/03/13 02:10:52;;;;;;;;;;;7.60;99.90;;;;;;5046876;28;20033;-44
2023/03/13 02:13:19;;;;;;;32.30;6.67;;;7.70;99.90;;;;;;5044801;28;19943;-46
2023/03/13 02:15:46;;;;;;;30.05;6.07;;;7.70;99.90;;;;;;5046342;28;20037;-44
2023/03/13 02:18:12;;;;;;;32.33;5.57;;;7.60;99.90;;;;;;5046368;28;20037;-45
2023/03/13 02:20:39;;;;;;;28.08;5.93;;;7.70;99.90;;;;;;5046617;28;20037;-45
2023/03/13 02:23:20;;;;;;;28.13;6.78;;;7.80;99.90;;;;;;5045988;28;20134;-46
2023/03/13 02:25:48;;;;;;;36.55;7.18;;;7.70;99.90;;;;;;5046152;28;20041;-46
2023/03/13 02:28:21;;;;;;;32.50;6.30;;;8.30;99.90;;;;;;5045956;28;20037;-45
2023/03/13 02:30:50;;;;;;;38.17;7.13;;;7.80;99.90;;;;;;5028391;28;20661;-46
2023/03/13 02:33:18;;;;;;;28.95;6.00;;;7.70;99.90;;;;;;5045680;28;20071;-45
2023/03/13 02:35:46;;;;;;;34.25;7.20;;;9.00;99.90;;;;;;5045886;28;20045;-46
2023/03/13 02:38:16;;;;;;;22.27;6.05;;;8.00;99.90;;;;;;5049684;28;20045;-46
2023/03/13 02:40:45;;;;;;;36.13;7.50;;;7.70;99.90;;;;;;5049747;28;20076;-45
2023/03/13 02:43:19;;;;;;;28.60;7.30;;;8.00;99.90;;;;;;5049296;28;20056;-45
2023/03/13 02:46:01;;;;;;;23.63;5.50;;;7.80;99.90;;;;;;5050113;28;20044;-45
2023/03/13 02:48:33;;;;;;;18.55;5.45;;;7.70;99.90;;;;;;5049981;28;20067;-46
2023/03/13 02:50:59;;;;;;;30.73;6.78;;;7.90;99.90;;;;;;5049856;28;20049;-45
2023/03/13 02:53:26;;;;;;;18.92;5.78;;;7.80;99.90;;;;;;5049719;28;20613;-45
2023/03/13 02:55:52;;;;;;;23.15;5.63;;;8.10;99.90;;;;;;5049890;28;20091;-46
2023/03/13 02:58:17;;;;;;;17.98;5.10;;;7.90;99.90;;;;;;5048682;28;20482;-45
2023/03/13 03:00:44;;;;;;;14.23;4.45;;;7.90;99.90;;;;;;5049170;28;20040;-45
2023/03/13 03:03:09;;;;;;;19.95;5.95;;;8.40;99.90;;;;;;5048995;28;20041;-45
2023/03/13 03:05:35;;;;;;;17.83;5.25;;;7.90;99.90;;;;;;5049524;28;20374;-45
2023/03/13 03:08:01;;;;;;;15.43;4.57;;;8.00;99.90;;;;;;5049144;28;20441;-45
2023/03/13 03:10:26;;;;;;;17.58;4.85;;;8.00;99.90;;;;;;5049319;28;20508;-45
2023/03/13 03:12:52;;;;;;;13.15;5.03;;;7.90;99.90;;;;;;5049448;28;20041;-45
2023/03/13 03:15:18;;;;;;;17.55;4.50;;;8.90;99.90;;;;;;5048476;28;20044;-44
2023/03/13 03:17:43;;;;;;;16.50;4.72;;;8.00;99.90;;;;;;5048165;28;20072;-45
2023/03/13 03:20:12;;;;;;;15.77;5.13;;;8.50;99.90;;;;;;5047618;28;20041;-45
2023/03/13 03:22:39;;;;;;;13.95;4.47;;;8.10;99.90;;;;;;5048288;28;20132;-45
2023/03/13 03:25:07;;;;;;;16.20;5.88;;;8.40;99.90;;;;;;5047743;28;20041;-45
2023/03/13 03:27:32;;;;;;;11.77;4.70;;;8.10;99.90;;;;;;5048639;28;20067;-45
2023/03/13 03:29:58;;;;;;;11.75;5.03;;;8.30;99.90;;;;;;5048674;28;20474;-45
2023/03/13 03:32:23;;;;;;;11.00;4.25;;;9.10;99.90;;;;;;5048806;28;20041;-47
2023/03/13 03:34:49;;;;;;;17.60;4.93;;;8.70;99.90;;;;;;5048951;28;20170;-45
2023/03/13 03:37:15;;;;;;;12.80;4.32;;;8.80;99.90;;;;;;5048462;28;20048;-45
2023/03/13 03:39:40;;;;;;;11.52;4.78;;;8.40;99.90;;;;;;5048894;28;20036;-45
2023/03/13 03:42:08;;;;;;;16.55;4.95;;;8.80;99.90;;;;;;5030765;28;20099;-45
2023/03/13 03:44:34;;;;;;;15.60;5.63;;;8.20;99.90;;;;;;5048790;28;20410;-46
2023/03/13 03:46:59;;;;;;;10.52;4.78;;;8.30;99.90;;;;;;5048911;28;20053;-47
2023/03/13 03:49:25;;;;;;;9.27;4.57;;;8.20;99.90;;;;;;5047597;28;20831;-45
2023/03/13 03:51:51;;;;;;;13.55;4.82;;;8.40;99.90;;;;;;5048664;28;20041;-45
2023/03/13 03:54:16;;;;;;;13.98;4.30;;;8.30;99.90;;;;;;5048554;28;20041;-46
2023/03/13 03:56:42;;;;;;;15.15;4.57;;;8.90;99.90;;;;;;5048221;28;20049;-46
2023/03/13 03:59:08;;;;;;;14.90;6.00;;;8.30;99.90;;;;;;5048637;28;20423;-45
2023/03/13 04:01:33;;;;;;;9.38;4.60;;;8.50;99.90;;;;;;5048547;28;20390;-45
2023/03/13 04:03:59;;;;;;;11.10;4.85;;;8.40;99.90;;;;;;5048602;28;20045;-44
2023/03/13 04:06:25;;;;;;;18.17;5.53;;;8.40;99.90;;;;;;5048524;28;20037;-44
2023/03/13 04:08:50;;;;;;;14.00;5.13;;;8.60;99.90;;;;;;5048455;28;20045;-45
2023/03/13 04:11:16;;;;;;;13.30;5.22;;;8.60;99.90;;;;;;5048092;28;20047;-45
2023/03/13 04:13:41;;;;;;;12.15;5.15;;;8.60;99.90;;;;;;5048286;28;20125;-45
2023/03/13 04:16:08;;;;;;;17.48;5.82;;;8.60;99.90;;;;;;5047765;28;20045;-44
2023/03/13 04:18:34;;;;;;;12.27;5.38;;;8.70;99.90;;;;;;5048190;28;20048;-45
2023/03/13 04:21:01;;;;;;;13.55;5.38;;;8.90;99.90;;;;;;5029924;28;20441;-45
2023/03/13 04:23:27;;;;;;;11.57;4.57;;;8.70;99.90;;;;;;5048210;28;20064;-45
2023/03/13 04:25:52;;;;;;;11.93;4.88;;;9.30;99.90;;;;;;5048307;28;20693;-44
2023/03/13 04:28:18;;;;;;;11.20;4.55;;;8.80;99.90;;;;;;5047989;28;20130;-45
2023/03/13 04:30:43;;;;;;;11.48;4.68;;;8.90;99.90;;;;;;5048667;28;20060;-46
2023/03/13 04:33:09;;;;;;;10.57;5.55;;;8.90;99.90;;;;;;5048427;28;20045;-44
2023/03/13 04:35:35;;;;;;;11.32;5.30;;;8.90;99.90;;;;;;5048641;28;20037;-44
2023/03/13 04:38:01;;;;;;;14.35;5.32;;;9.00;99.90;;;;;;5048442;28;20040;-45
2023/03/13 04:40:27;;;;;;;16.05;5.82;;;9.10;99.90;;;;;;5048319;28;20122;-46
2023/03/13 04:42:53;;;;;;;10.18;5.88;;;9.60;99.90;;;;;;5048186;28;20057;-45
2023/03/13 04:45:19;;;;;;;13.32;5.85;;;9.10;99.90;;;;;;5047771;28;20045;-45
2023/03/13 04:47:46;;;;;;;10.80;5.13;;;9.10;99.90;;;;;;5048006;28;20132;-45
2023/03/13 04:50:11;;;;;;;14.60;6.10;;;9.80;99.90;;;;;;5047455;28;20048;-46
2023/03/13 04:52:37;;;;;;;12.73;5.60;;;9.30;99.90;;;;;;5047676;28;20045;-45
2023/03/13 04:55:03;;;;;;;14.60;6.30;;;9.30;99.90;;;;;;5047607;28;20151;-45
2023/03/13 04:57:29;;;;;;;16.77;6.45;;;9.50;99.90;;;;;;5047035;28;20041;-44
2023/03/13 04:59:55;;;;;;;13.20;6.20;;;9.50;99.90;;;;;;5047119;28;20105;-46
2023/03/13 05:02:20;;;;;;;12.45;6.13;;;9.50;99.90;;;;;;5047161;28;20037;-45
2023/03/13 05:04:46;;;;;;;14.60;6.28;;;9.50;99.90;;;;;;5046979;28;20124;-45
2023/03/13 05:07:12;;;;;;;16.33;6.45;;;10.10;99.90;;;;;;5046493;28;20391;-45
2023/03/13 05:09:37;;;;;;;16.63;6.88;;;9.60;99.90;;;;;;5046960;28;20041;-46
2023/03/13 05:12:03;;;;;;;14.55;6.25;;;9.60;99.90;;;;;;5046391;28;20048;-45
2023/03/13 05:14:29;;;;;;;13.63;6.70;;;9.70;99.90;;;;;;5046509;28;20141;-45
2023/03/13 05:16:54;;;;;;;20.70;6.95;;;9.70;99.90;;;;;;5046788;28;20155;-45
2023/03/13 05:19:20;;;;;;;15.30;6.30;;;9.80;99.90;;;;;;5047414;28;20041;-44
2023/03/13 05:21:45;;;;;;;14.95;7.03;;;9.80;99.90;;;;;;5047297;28;20098;-45
2023/03/13 05:24:11;;;;;;;18.38;7.68;;;9.90;99.90;;;;;;5028968;28;20742;-45
2023/03/13 05:26:37;;;;;;;14.73;7.25;;;10.00;99.90;;;;;;5046305;28;20045;-44
2023/03/13 05:29:03;;;;;;;15.73;7.75;;;10.00;99.90;;;;;;5046612;28;20443;-45
2023/03/13 05:31:28;;;;;;;12.48;6.35;;;10.30;99.90;;;;;;5046294;28;20119;-45
2023/03/13 05:33:55;;;;;;;14.60;7.95;;;10.10;99.90;;;;;;5046537;28;20055;-44
2023/03/13 05:36:21;;;;;;;20.90;8.70;;;10.20;99.90;;;;;;5046187;28;20106;-45
2023/03/13 05:38:46;;;;;;;15.98;7.80;;;10.20;99.90;;;;;;5046793;28;20041;-45
2023/03/13 05:41:12;;;;;;;14.43;7.53;;;10.20;99.90;;;;;;5046339;28;20087;-46
2023/03/13 05:43:38;;;;;;;14.18;6.88;;;10.30;99.90;;;;;;5045967;28;20122;-45
2023/03/13 05:46:03;;;;;;;14.27;6.95;;;10.30;99.90;;;;;;5046282;28;20808;-46
2023/03/13 05:48:29;;;;;;;15.85;7.25;;;10.40;99.90;;;;;;5046452;28;20505;-44
2023/03/13 05:50:55;;;;;;;13.57;6.97;;;10.40;99.90;;;;;;5046605;28;20041;-44
2023/03/13 05:53:20;;;;;;;12.30;6.10;;;10.60;99.90;;;;;;5046482;28;20075;-45
2023/03/13 05:55:46;;;;;;;10.82;5.25;;;10.50;99.90;;;;;;5046985;28;20072;-47
2023/03/13 05:58:12;;;;;;;12.10;5.45;;;10.50;99.90;;;;;;5028480;28;20040;-44
2023/03/13 06:00:37;;;;;;;11.82;5.82;;;10.70;99.90;;;;;;5046775;28;20029;-47
2023/03/13 06:03:03;;;;;;;12.05;5.65;;;10.60;99.90;;;;;;5047106;28;20029;-44
2023/03/13 06:05:29;;;;;;;11.43;4.88;;;10.60;99.90;;;;;;5046712;28;20483;-44
2023/03/13 06:07:54;;;;;;;12.18;5.70;;;13.50;99.90;;;;;;5028748;28;20045;-44
2023/03/13 06:10:20;;;;;;;12.18;6.63;;;11.20;99.90;;;;;;5045743;28;20052;-45
2023/03/13 06:12:52;;;;;;;9.90;5.63;;;10.70;99.90;;;;;;5045236;28;20053;-45
2023/03/13 06:15:18;;;;;;;9.13;4.15;;;10.60;99.90;;;;;;5045272;28;20041;-43
2023/03/13 06:17:44;;;;;;;13.57;6.78;;;10.70;99.90;;;;;;5044867;28;20037;-43
2023/03/13 06:20:10;;;;;;;12.43;6.00;;;10.70;99.90;;;;;;5045317;28;20041;-43
2023/03/13 06:22:36;;;;;;;10.05;5.68;;;10.70;99.90;;;;;;5044889;28;20375;-44
2023/03/13 06:25:02;;;;;;;12.35;6.07;;;10.80;99.90;;;;;;5045907;28;20049;-44
2023/03/13 06:27:27;;;;;;;15.77;7.28;;;10.70;99.90;;;;;;5045843;28;20041;-44
2023/03/13 06:29:53;;;;;;;13.05;6.25;;;11.40;99.90;;;;;;5045854;28;20445;-43
2023/03/13 06:32:19;;;;;;;13.18;6.22;;;10.80;99.90;;;;;;5045710;28;20697;-44
2023/03/13 06:34:44;;;;;;;12.93;7.00;;;10.80;99.90;;;;;;5045617;28;20052;-44
2023/03/13 06:37:10;;;;;;;16.38;6.45;;;11.30;99.90;;;;;;5045686;28;20048;-44
2023/03/13 06:39:36;;;;;;;13.52;6.03;;;10.80;99.90;;;;;;5045669;28;20058;-44
2023/03/13 06:42:01;;;;;;;16.58;6.93;;;10.80;99.90;;;;;;5045680;28;20170;-44
2023/03/13 06:44:27;;;;;;;15.68;6.95;;;11.10;99.90;;;;;;5045255;28;20150;-43
2023/03/13 06:46:53;;;;;;;12.68;6.95;;;10.80;99.90;;;;;;5045920;28;20064;-43
2023/03/13 06:49:18;;;;;;;15.93;6.55;;;10.80;99.90;;;;;;5046000;28;20072;-44
2023/03/13 06:51:44;;;;;;;18.92;6.47;;;10.90;99.90;;;;;;5045600;28;20049;-44
2023/03/13 06:54:10;;;;;;;18.40;7.97;;;10.80;99.90;;;;;;5045698;28;20056;-45
2023/03/13 06:56:35;;;;;;;15.65;5.32;;;10.90;99.90;;;;;;5045185;28;20040;-43
2023/03/13 06:59:01;;;;;;;24.00;8.77;;;11.10;99.90;;;;;;5045514;28;20041;-43
2023/03/13 07:01:27;;;;;;;22.98;7.10;;;11.30;99.90;;;;;;5045842;28;20068;-44
2023/03/13 07:03:52;;;;;;;17.60;7.25;;;11.10;99.90;;;;;;5045666;28;20088;-44
2023/03/13 07:06:18;;;;;;;15.40;7.13;;;10.80;99.90;;;;;;5045566;28;20048;-43
2023/03/13 07:08:44;;;;;;;20.98;6.22;;;10.80;99.90;;;;;;5045556;28;20041;-44
2023/03/13 07:11:12;;;;;;;15.45;7.00;;;10.90;99.90;;;;;;5045777;28;20446;-44
2023/03/13 07:13:38;;;;;;;18.48;6.25;;;10.80;99.90;;;;;;5045783;28;20116;-44
2023/03/13 07:16:09;;;;;;;19.88;6.10;;;10.80;99.90;;;;;;5045728;28;20144;-44
2023/03/13 07:18:35;;;;;;;16.77;6.57;;;11.20;99.90;;;;;;5045278;28;20573;-44
2023/03/13 07:21:06;;;;;;;14.55;6.65;;;11.20;99.90;;;;;;5045637;28;20037;-43
2023/03/13 07:23:33;;;;;;;17.30;5.68;;;10.80;99.90;;;;;;5046609;28;20037;-43
2023/03/13 07:26:09;;;;;;;19.40;6.57;;;10.90;99.90;;;;;;5049222;28;20124;-44
2023/03/13 07:28:35;;;;;;;13.60;4.70;;;10.90;99.90;;;;;;5048857;28;20103;-44
2023/03/13 07:31:10;;;;;;;17.20;6.85;;;11.30;99.90;;;;;;5049151;28;20041;-43
2023/03/13 07:33:36;;;;;;;13.50;5.68;;;10.90;99.90;;;;;;5049056;28;20492;-43
2023/03/13 07:36:02;;;;;;;16.30;5.82;;;11.60;99.90;;;;;;5048709;28;20072;-43
2023/03/13 07:38:28;;;;;;;11.55;4.53;;;10.80;99.90;;;;;;5048694;28;20036;-44
2023/03/13 07:40:56;;;;;;;13.50;5.03;;;11.00;99.90;;;;;;5048852;28;20477;-44
2023/03/13 07:43:22;;;;;;;15.60;5.47;;;11.30;99.90;;;;;;5048689;28;20422;-43
2023/03/13 07:45:55;;;;;;;15.15;4.65;;;11.40;99.90;;;;;;5048786;28;20055;-44
2023/03/13 07:48:23;;;;;;;14.48;4.47;;;11.10;99.90;;;;;;5048112;28;20470;-43
2023/03/13 07:50:49;;;;;;;19.48;4.95;;;11.00;99.90;;;;;;5047937;28;20126;-43
2023/03/13 07:53:19;;;;;;;13.27;4.40;;;11.50;99.90;;;;;;5030290;28;20045;-43
2023/03/13 07:55:57;;;;;;;13.40;4.75;;;11.60;99.90;;;;;;5048050;28;20064;-45
2023/03/13 07:58:24;;;;;;;13.35;4.68;;;11.20;99.90;;;;;;5047928;28;20134;-44
2023/03/13 08:00:50;;;;;;;10.10;4.68;;;11.50;99.90;;;;;;5048106;28;20049;-44
2023/03/13 08:03:15;;;;;;;14.57;4.28;;;11.60;99.90;;;;;;5048131;28;20619;-45
2023/03/13 08:05:41;;;;;;;10.50;4.18;;;11.50;99.90;;;;;;5048166;28;20069;-43
2023/03/13 08:08:07;;;;;;;15.05;3.35;;;11.10;99.90;;;;;;5048084;28;20162;-43
2023/03/13 08:10:33;;;;;;;21.15;3.85;;;11.80;99.90;;;;;;5030349;28;20091;-44
2023/03/13 08:12:58;;;;;;;12.43;4.82;;;11.40;99.90;;;;;;5048716;28;20119;-44
2023/03/13 08:15:25;;;;;;;9.23;3.63;;;11.60;99.90;;;;;;5048528;28;20129;-43
2023/03/13 08:17:54;;;;;;;11.50;3.33;;;11.20;99.90;;;;;;5047811;28;20815;-43
2023/03/13 08:20:20;;;;;;;6.43;2.20;;;11.20;99.90;;;;;;5046476;28;20049;-44
2023/03/13 08:22:46;;;;;;;7.10;2.40;;;11.10;99.90;;;;;;5048075;28;20044;-43
2023/03/13 08:25:13;;;;;;;5.63;1.98;;;11.50;99.90;;;;;;5048484;28;20041;-43
2023/03/13 08:27:38;;;;;;;8.40;2.10;;;11.20;99.90;;;;;;5047760;28;20083;-43
2023/03/13 08:30:05;;;;;;;5.85;2.67;;;11.60;99.90;;;;;;5047790;28;20140;-43
2023/03/13 08:32:35;;;;;;;9.35;2.47;;;11.20;99.90;;;;;;5047707;28;20049;-43
2023/03/13 08:35:01;;;;;;;10.55;1.73;;;11.20;99.90;;;;;;5047344;28;20045;-43
2023/03/13 08:37:27;;;;;;;7.13;2.08;;;11.50;99.90;;;;;;5047516;28;20045;-44
2023/03/13 08:39:55;;;;;;;5.05;2.05;;;11.40;99.90;;;;;;5047483;28;20118;-45
2023/03/13 08:42:21;;;;;;;6.20;1.48;;;11.20;99.90;;;;;;5047819;28;20052;-43
2023/03/13 08:44:47;;;;;;;4.57;1.35;;;11.20;99.90;;;;;;5047212;28;20056;-43
2023/03/13 08:47:13;;;;;;;7.78;2.30;;;11.40;99.90;;;;;;5047473;28;20513;-44
2023/03/13 08:49:38;;;;;;;7.90;2.28;;;11.30;99.90;;;;;;5047199;28;20474;-43
2023/03/13 08:52:05;;;;;;;7.25;2.15;;;11.60;99.90;;;;;;5047531;28;20045;-43
2023/03/13 08:54:32;;;;;;;7.95;2.67;;;11.40;99.90;;;;;;5047308;28;20418;-43
2023/03/13 08:56:58;;;;;;;5.35;2.53;;;10.20;99.90;;;;;;5046380;28;20079;-45
2023/03/13 08:59:24;;;;;;;6.25;1.98;;;11.90;99.90;;;;;;5046833;28;20048;-43
2023/03/13 09:01:50;;;;;;;5.93;2.15;;;11.40;99.90;;;;;;5028519;28;20063;-44
2023/03/13 09:04:17;;;;;;;6.65;1.90;;;11.50;99.90;;;;;;5046598;28;20040;-44
2023/03/13 09:06:42;;;;;;;6.03;2.20;;;11.30;99.90;;;;;;5046461;28;20048;-43
2023/03/13 09:09:09;;;;;;;3.90;2.33;;;11.70;99.90;;;;;;5046682;28;20052;-43
2023/03/13 09:11:36;;;;;;;5.70;2.00;;;11.90;99.90;;;;;;5046113;28;20090;-43
2023/03/13 09:14:02;;;;;;;9.10;2.13;;;11.90;99.90;;;;;;5045703;28;20040;-43
2023/03/13 09:16:29;;;;;;;7.80;2.65;;;12.10;99.90;;;;;;5045450;28;20041;-43
2023/03/13 09:18:56;;;;;;;3.50;1.95;;;12.00;99.90;;;;;;5045112;28;20686;-43
2023/03/13 09:21:28;;;;;;;5.53;2.50;;;12.30;99.90;;;;;;5045523;28;20045;-43
2023/03/13 09:23:54;;;;;;;7.65;2.35;;;12.20;99.90;;;;;;5046117;28;20624;-43
2023/03/13 09:26:21;;;;;;;5.38;1.98;;;12.70;99.90;;;;;;5046495;28;20045;-43
2023/03/13 09:28:47;;;;;;;8.13;2.25;;;12.40;99.90;;;;;;5045777;28;20608;-43
2023/03/13 09:31:19;;;;;;;5.00;1.92;;;12.50;99.90;;;;;;5046155;28;20048;-44
2023/03/13 09:33:46;;;;;;;6.10;1.75;;;12.20;99.90;;;;;;5046175;28;20044;-43
2023/03/13 09:36:12;;;;;;;3.15;1.30;;;12.20;99.90;;;;;;5046231;28;20055;-44
2023/03/13 09:38:38;;;;;;;6.45;1.75;;;12.20;99.90;;;;;;5046352;28;20048;-44
2023/03/13 09:41:16;;;;;;;9.95;1.75;;;12.20;99.90;;;;;;5046309;28;20048;-44
2023/03/13 09:44:00;;;;;;;4.03;1.55;;;12.40;99.90;;;;;;5046171;28;20053;-44
2023/03/13 09:46:36;;;;;;;7.07;1.88;;;12.20;99.90;;;;;;5045858;28;20044;-44
2023/03/13 09:49:10;;;;;;;8.57;2.45;;;12.20;99.90;;;;;;5046280;28;20148;-44
2023/03/13 09:51:42;;;;;;;4.25;1.42;;;12.80;99.90;;;;;;5046766;28;20053;-44
2023/03/13 09:54:30;;;;;;;6.13;1.65;;;12.20;99.90;;;;;;5046245;28;20045;-44
2023/03/13 09:57:09;;;;;;;3.78;1.90;;;12.20;99.90;;;;;;5045876;28;20072;-44
2023/03/13 09:59:45;;;;;;;4.68;1.25;;;12.10;99.90;;;;;;5046355;28;20131;-43
2023/03/13 10:02:20;;;;;;;3.72;1.15;;;12.00;99.90;;;;;;5046326;28;20489;-43
2023/03/13 10:04:56;;;;;;;3.60;1.50;;;12.00;99.90;;;;;;5045641;28;20040;-42
2023/03/13 10:07:22;;;;;;;5.55;1.30;;;12.00;99.90;;;;;;5046670;28;20044;-43
2023/03/13 10:09:48;;;;;;;5.75;1.65;;;11.90;99.90;;;;;;5046252;28;20113;-42
2023/03/13 10:12:26;;;;;;;4.60;1.63;;;12.00;99.90;;;;;;5046135;28;20043;-43
2023/03/13 10:15:02;;;;;;;10.38;1.65;;;12.40;99.90;;;;;;5045807;28;20033;-43
2023/03/13 10:17:37;;;;;;;16.30;2.40;;;12.00;99.90;;;;;;5028074;28;20068;-46
2023/03/13 10:20:34;;;;;;;7.05;1.33;;;12.40;99.90;;;;;;5045575;28;20087;-45
2023/03/13 10:23:11;;;;;;;5.60;1.10;;;13.00;99.90;;;;;;5046372;28;20043;-45
2023/03/13 10:25:38;;;;;;;5.93;1.38;;;13.40;99.90;;;;;;5045799;28;20045;-44
2023/03/13 10:28:14;;;;;;;8.57;1.65;;;13.60;99.90;;;;;;5045366;28;20052;-44
2023/03/13 10:30:46;;;;;;;6.63;1.10;;;13.60;99.90;;;;;;5046063;28;20045;-44
2023/03/13 10:33:11;;;;;;;;;;;13.50;99.90;;;;;;5046054;28;20053;-43
2023/03/13 10:35:41;;;;;;;6.30;1.20;;;13.40;99.90;;;;;;5045986;28;19920;-43
2023/03/13 10:38:17;;;;;;;5.68;0.90;;;13.30;99.90;;;;;;5045543;28;20142;-44
2023/03/13 10:40:54;;;;;;;7.13;0.95;;;13.50;99.90;;;;;;5046023;28;20040;-44
2023/03/13 10:43:21;;;;;;;4.90;0.70;;;13.50;99.90;;;;;;5046162;28;20176;-45
2023/03/13 10:45:46;;;;;;;5.43;0.88;;;13.70;99.90;;;;;;5046210;28;20390;-43
2023/03/13 10:48:17;;;;;;;9.02;1.10;;;13.70;99.90;;;;;;5046576;28;20037;-43
2023/03/13 10:50:44;;;;;;;9.05;1.52;;;13.70;99.90;;;;;;5030348;28;20599;-43
2023/03/13 10:53:21;;;;;;;4.78;0.90;;;13.80;99.90;;;;;;5045877;28;20049;-44
2023/03/13 10:55:48;;;;;;;6.25;1.00;;;14.00;99.90;;;;;;5043502;28;20406;-44
2023/03/13 10:58:23;;;;;;;9.25;1.08;;;14.40;99.90;;;;;;5043335;28;20095;-45
2023/03/13 11:00:49;;;;;;;6.10;1.33;;;14.50;99.90;;;;;;5061861;28;20668;-47
2023/03/13 11:03:24;;;;;;;7.80;1.13;;;14.70;99.90;;;;;;5065532;28;20135;-44
2023/03/13 11:05:59;;;;;;;6.40;0.73;;;14.60;99.90;;;;;;5065247;28;20080;-46
2023/03/13 11:08:28;;;;;;;8.45;1.75;;;14.60;99.90;;;;;;5066137;28;20040;-46
2023/03/13 11:11:02;;;;;;;6.95;1.30;;;14.60;99.90;;;;;;5065440;28;20040;-46
2023/03/13 11:13:54;;;;;;;7.85;0.93;;;14.60;99.90;;;;;;5065533;28;20169;-46
2023/03/13 11:16:23;;;;;;;6.15;1.23;;;14.40;99.90;;;;;;5002234;28;20119;-45
2023/03/13 11:19:00;;;;;;;7.47;1.17;;;14.30;99.90;;;;;;5040882;28;20494;-43
2023/03/13 11:21:57;;;;;;;6.38;1.17;;;14.40;99.90;;;;;;5062045;28;20040;-47
2023/03/13 11:24:34;;;;;;;5.07;1.15;;;14.80;99.90;;;;;;5060223;28;20470;-47
2023/03/13 11:27:20;;;;;;;7.85;1.02;;;14.70;99.90;;;;;;5026329;28;20860;-43
2023/03/13 11:30:11;;;;;;;7.63;1.02;;;14.50;99.90;;;;;;5061311;28;20127;-45
2023/03/13 11:32:52;;;;;;;5.60;0.52;;;14.60;99.90;;;;;;5041404;28;20131;-44
2023/03/13 11:35:18;;;;;;;9.48;1.23;;;;;;;;;;5040643;28;20056;-45
2023/03/13 11:37:44;;;;;;;5.35;0.88;;;14.30;99.90;;;;;;5040633;28;20544;-43
2023/03/13 11:40:09;;;;;;;5.88;0.82;;;14.50;99.90;;;;;;5004930;28;20041;-43
2023/03/13 11:43:08;;;;;;;4.75;0.80;;;14.70;99.90;;;;;;5059921;28;20096;-48
2023/03/13 11:45:43;;;;;;;4.28;0.45;;;14.60;99.90;;;;;;5079153;28;20078;-43
2023/03/13 11:48:34;;;;;;;3.33;0.70;;;14.70;99.90;;;;;;5083248;28;20770;-43
2023/03/13 11:51:02;;;;;;;4.38;0.40;;;14.80;99.90;;;;;;5081365;28;20051;-45
2023/03/13 11:54:03;;;;;;;1.30;0.20;;;14.80;99.90;;;;;;5080404;28;20969;-44
2023/03/13 11:56:42;;;;;;;5.07;0.55;;;14.70;99.90;;;;;;5052978;28;20076;-46
2023/03/13 11:59:45;;;;;;;2.28;0.30;;;14.70;99.90;;;;;;5078922;28;20043;-42
2023/03/13 12:02:25;;;;;;;2.85;0.57;;;14.60;99.90;;;;;;5078836;28;20044;-46
2023/03/13 12:05:00;;;;;;;3.25;0.55;;;14.60;99.90;;;;;;5079358;28;20067;-45
2023/03/13 12:07:31;;;;;;;2.92;0.30;;;14.70;99.90;;;;;;5078612;28;20831;-43
2023/03/13 12:10:32;;;;;;;3.35;0.32;;;15.20;99.90;;;;;;5077791;28;20040;-46
2023/03/13 12:13:13;;;;;;;2.38;0.30;;;14.80;99.90;;;;;;5060451;28;20501;-45
2023/03/13 12:15:47;;;;;;;5.20;0.90;;;14.90;99.90;;;;;;5040658;28;20741;-45
2023/03/13 12:18:21;;;;;;;3.72;0.73;;;15.00;99.90;;;;;;5043717;28;20110;-46
2023/03/13 12:21:16;;;;;;;4.53;0.50;;;15.00;99.90;;;;;;5060097;28;20043;-43
2023/03/13 12:24:31;;;;;;;4.88;0.35;;;15.10;99.90;;;;;;5078890;28;20720;-46
2023/03/13 12:27:16;;;;;;;5.25;0.70;;;15.00;99.90;;;;;;5053411;28;20052;-45
2023/03/13 12:30:17;;;;;;;3.92;0.47;;;15.00;99.90;;;;;;5060957;28;20052;-44
2023/03/13 12:32:49;;;;;;;3.72;0.82;;;15.30;99.90;;;;;;5041250;28;20064;-42
2023/03/13 12:35:24;;;;;;;;;;;15.00;99.90;;;;;;5063401;28;20055;-50
2023/03/13 12:38:14;;;;;;;5.57;0.63;;;15.00;99.90;;;;;;5080356;28;19928;-46
2023/03/13 12:40:58;;;;;;;3.67;0.55;;;14.60;99.90;;;;;;5079251;28;20186;-44
2023/03/13 12:43:38;;;;;;;4.63;0.60;;;15.10;99.90;;;;;;5078412;28;20112;-48
2023/03/13 12:46:16;;;;;;;7.00;0.60;;;15.10;99.90;;;;;;5078732;28;20079;-43
2023/03/13 12:48:54;;;;;;;4.00;0.98;;;15.20;99.90;;;;;;5078843;28;20052;-48
2023/03/13 12:51:29;;;;;;;5.22;0.68;;;15.30;99.90;;;;;;5059856;28;20687;-45
2023/03/13 12:54:12;;;;;;;4.07;0.65;;;15.40;99.90;;;;;;5077826;28;20052;-44
2023/03/13 12:57:11;;;;;;;5.90;0.40;;;15.30;99.90;;;;;;5063924;28;20058;-46